sensor_id;sensor_type;location;lat;lon;timestamp;temperature;humidity
20045;DHT22;10183;47.808;9.476;2023-07-09T00:01:18;16.90;99.90
20045;DHT22;10183;47.808;9.476;2023-07-09T00:03:45;16.90;99.90
20045;DHT22;10183;47.808;9.476;2023-07-09T00:06:12;16.50;99.90
20045;DHT22;10183;47.808;9.476;2023-07-09T00:08:42;16.40;99.90
20045;DHT22;10183;47.808;9.476;2023-07-09T00:11:09;16.40;99.90
20045;DHT22;10183;47.808;9.476;2023-07-09T00:13:36;16.60;99.90
20045;DHT22;10183;47.808;9.476;2023-07-09T00:16:10;16.60;99.90
20045;DHT22;10183;47.808;9.476;2023-07-09T00:18:37;16.70;99.90
20045;DHT22;10183;47.808;9.476;2023-07-09T00:21:03;16.70;99.90
20045;DHT22;10183;47.808;9.476;2023-07-09T00:23:29;16.60;99.90
20045;DHT22;10183;47.808;9.476;2023-07-09T00:25:55;16.60;99.90
20045;DHT22;10183;47.808;9.476;2023-07-09T00:28:22;16.60;99.90
20045;DHT22;10183;47.808;9.476;2023-07-09T00:30:48;16.50;99.90
20045;DHT22;10183;47.808;9.476;2023-07-09T00:33:16;16.40;99.90
20045;DHT22;10183;47.808;9.476;2023-07-09T00:35:48;16.40;99.90
20045;DHT22;10183;47.808;9.476;2023-07-09T00:38:19;16.30;99.90
20045;DHT22;10183;47.808;9.476;2023-07-09T00:40:59;16.30;99.90
20045;DHT22;10183;47.808;9.476;2023-07-09T00:43:30;16.20;99.90
20045;DHT22;10183;47.808;9.476;2023-07-09T00:48:47;16.10;99.90
20045;DHT22;10183;47.808;9.476;2023-07-09T00:51:18;16.10;99.90
20045;DHT22;10183;47.808;9.476;2023-07-09T00:53:47;16.00;99.90
20045;DHT22;10183;47.808;9.476;2023-07-09T00:56:18;16.00;99.90
20045;DHT22;10183;47.808;9.476;2023-07-09T00:58:47;16.00;99.90
20045;DHT22;10183;47.808;9.476;2023-07-09T01:01:18;15.90;99.90
20045;DHT22;10183;47.808;9.476;2023-07-09T01:03:51;15.90;99.90
20045;DHT22;10183;47.808;9.476;2023-07-09T01:06:23;15.80;99.90
20045;DHT22;10183;47.808;9.476;2023-07-09T01:08:53;15.70;99.90
20045;DHT22;10183;47.808;9.476;2023-07-09T01:11:21;15.60;99.90
20045;DHT22;10183;47.808;9.476;2023-07-09T01:13:59;15.60;99.90
20045;DHT22;10183;47.808;9.476;2023-07-09T01:16:30;15.80;99.90
20045;DHT22;10183;47.808;9.476;2023-07-09T01:18:57;15.90;99.90
20045;DHT22;10183;47.808;9.476;2023-07-09T01:21:23;15.90;99.90
20045;DHT22;10183;47.808;9.476;2023-07-09T01:23:50;15.80;99.90
20045;DHT22;10183;47.808;9.476;2023-07-09T01:26:23;15.60;99.90
20045;DHT22;10183;47.808;9.476;2023-07-09T01:28:55;15.50;99.90
20045;DHT22;10183;47.808;9.476;2023-07-09T01:31:21;15.50;99.90
20045;DHT22;10183;47.808;9.476;2023-07-09T01:33:49;15.40;99.90
20045;DHT22;10183;47.808;9.476;2023-07-09T01:36:19;15.40;99.90
20045;DHT22;10183;47.808;9.476;2023-07-09T01:38:50;15.50;99.90
20045;DHT22;10183;47.808;9.476;2023-07-09T01:41:17;15.70;99.90
20045;DHT22;10183;47.808;9.476;2023-07-09T01:43:46;15.70;99.90
20045;DHT22;10183;47.808;9.476;2023-07-09T01:46:12;15.60;99.90
20045;DHT22;10183;47.808;9.476;2023-07-09T01:48:40;15.50;99.90
20045;DHT22;10183;47.808;9.476;2023-07-09T01:51:12;15.40;99.90
20045;DHT22;10183;47.808;9.476;2023-07-09T01:53:40;15.40;99.90
20045;DHT22;10183;47.808;9.476;2023-07-09T01:56:06;15.40;99.90
20045;DHT22;10183;47.808;9.476;2023-07-09T01:58:37;15.50;99.90
20045;DHT22;10183;47.808;9.476;2023-07-09T02:01:07;15.60;99.90
20045;DHT22;10183;47.808;9.476;2023-07-09T02:03:34;15.70;99.90
20045;DHT22;10183;47.808;9.476;2023-07-09T02:06:00;15.50;99.90
20045;DHT22;10183;47.808;9.476;2023-07-09T02:08:28;15.30;99.90
20045;DHT22;10183;47.808;9.476;2023-07-09T02:10:54;15.30;99.90
20045;DHT22;10183;47.808;9.476;2023-07-09T02:13:20;15.30;99.90
20045;DHT22;10183;47.808;9.476;2023-07-09T02:15:47;15.40;99.90
20045;DHT22;10183;47.808;9.476;2023-07-09T02:18:13;15.50;99.90
20045;DHT22;10183;47.808;9.476;2023-07-09T02:20:39;15.50;99.90
20045;DHT22;10183;47.808;9.476;2023-07-09T02:23:07;15.50;99.90
20045;DHT22;10183;47.808;9.476;2023-07-09T02:25:33;15.50;99.90
20045;DHT22;10183;47.808;9.476;2023-07-09T02:27:59;15.50;99.90
20045;DHT22;10183;47.808;9.476;2023-07-09T02:30:26;15.40;99.90
20045;DHT22;10183;47.808;9.476;2023-07-09T02:32:52;15.40;99.90
20045;DHT22;10183;47.808;9.476;2023-07-09T02:35:23;15.30;99.90
20045;DHT22;10183;47.808;9.476;2023-07-09T02:37:49;15.20;99.90
20045;DHT22;10183;47.808;9.476;2023-07-09T02:40:15;15.50;99.90
20045;DHT22;10183;47.808;9.476;2023-07-09T02:42:42;15.60;99.90
20045;DHT22;10183;47.808;9.476;2023-07-09T02:45:09;15.50;99.90
20045;DHT22;10183;47.808;9.476;2023-07-09T02:47:36;15.50;99.90
20045;DHT22;10183;47.808;9.476;2023-07-09T02:50:02;15.50;99.90
20045;DHT22;10183;47.808;9.476;2023-07-09T02:52:29;15.60;99.90
20045;DHT22;10183;47.808;9.476;2023-07-09T02:54:55;15.60;99.90
20045;DHT22;10183;47.808;9.476;2023-07-09T02:57:21;15.70;99.90
20045;DHT22;10183;47.808;9.476;2023-07-09T02:59:47;15.70;99.90
20045;DHT22;10183;47.808;9.476;2023-07-09T03:02:13;15.50;99.90
20045;DHT22;10183;47.808;9.476;2023-07-09T03:04:39;15.40;99.90
20045;DHT22;10183;47.808;9.476;2023-07-09T03:07:05;15.20;99.90
20045;DHT22;10183;47.808;9.476;2023-07-09T03:09:32;15.00;99.90
20045;DHT22;10183;47.808;9.476;2023-07-09T03:11:58;15.00;99.90
20045;DHT22;10183;47.808;9.476;2023-07-09T03:14:24;15.00;99.90
20045;DHT22;10183;47.808;9.476;2023-07-09T03:16:50;15.00;99.90
20045;DHT22;10183;47.808;9.476;2023-07-09T03:19:17;15.00;99.90
20045;DHT22;10183;47.808;9.476;2023-07-09T03:21:43;14.90;99.90
20045;DHT22;10183;47.808;9.476;2023-07-09T03:24:09;14.80;99.90
20045;DHT22;10183;47.808;9.476;2023-07-09T03:26:35;14.80;99.90
20045;DHT22;10183;47.808;9.476;2023-07-09T03:29:02;14.80;99.90
20045;DHT22;10183;47.808;9.476;2023-07-09T03:31:29;14.90;99.90
20045;DHT22;10183;47.808;9.476;2023-07-09T03:33:55;15.00;99.90
20045;DHT22;10183;47.808;9.476;2023-07-09T03:36:22;14.90;99.90
20045;DHT22;10183;47.808;9.476;2023-07-09T03:38:48;15.00;99.90
20045;DHT22;10183;47.808;9.476;2023-07-09T03:41:15;14.80;99.90
20045;DHT22;10183;47.808;9.476;2023-07-09T03:43:41;14.70;99.90
20045;DHT22;10183;47.808;9.476;2023-07-09T03:46:07;14.80;99.90
20045;DHT22;10183;47.808;9.476;2023-07-09T03:48:33;14.80;99.90
20045;DHT22;10183;47.808;9.476;2023-07-09T03:51:06;14.80;99.90
20045;DHT22;10183;47.808;9.476;2023-07-09T03:53:32;14.80;99.90
20045;DHT22;10183;47.808;9.476;2023-07-09T03:55:58;14.90;99.90
20045;DHT22;10183;47.808;9.476;2023-07-09T03:58:26;14.90;99.90
20045;DHT22;10183;47.808;9.476;2023-07-09T04:00:53;14.80;99.90
20045;DHT22;10183;47.808;9.476;2023-07-09T04:03:20;14.90;99.90
20045;DHT22;10183;47.808;9.476;2023-07-09T04:05:47;14.90;99.90
20045;DHT22;10183;47.808;9.476;2023-07-09T04:08:13;14.80;99.90
20045;DHT22;10183;47.808;9.476;2023-07-09T04:10:40;14.70;99.90
20045;DHT22;10183;47.808;9.476;2023-07-09T04:13:06;14.60;99.90
20045;DHT22;10183;47.808;9.476;2023-07-09T04:15:32;14.60;99.90
20045;DHT22;10183;47.808;9.476;2023-07-09T04:17:58;14.60;99.90
20045;DHT22;10183;47.808;9.476;2023-07-09T04:20:24;14.70;99.90
20045;DHT22;10183;47.808;9.476;2023-07-09T04:22:50;14.80;99.90
20045;DHT22;10183;47.808;9.476;2023-07-09T04:25:17;14.90;99.90
20045;DHT22;10183;47.808;9.476;2023-07-09T04:27:43;15.10;99.90
20045;DHT22;10183;47.808;9.476;2023-07-09T04:30:12;15.20;99.90
20045;DHT22;10183;47.808;9.476;2023-07-09T04:32:38;15.10;99.90
20045;DHT22;10183;47.808;9.476;2023-07-09T04:35:04;15.00;99.90
20045;DHT22;10183;47.808;9.476;2023-07-09T04:37:33;15.00;99.90
20045;DHT22;10183;47.808;9.476;2023-07-09T04:40:00;15.10;99.90
20045;DHT22;10183;47.808;9.476;2023-07-09T04:42:26;15.30;99.90
20045;DHT22;10183;47.808;9.476;2023-07-09T04:44:52;15.40;99.90
20045;DHT22;10183;47.808;9.476;2023-07-09T04:47:18;15.60;99.90
20045;DHT22;10183;47.808;9.476;2023-07-09T04:49:44;15.60;99.90
20045;DHT22;10183;47.808;9.476;2023-07-09T04:52:10;15.60;99.90
20045;DHT22;10183;47.808;9.476;2023-07-09T04:54:40;15.50;99.90
20045;DHT22;10183;47.808;9.476;2023-07-09T04:57:10;15.50;99.90
20045;DHT22;10183;47.808;9.476;2023-07-09T04:59:36;15.50;99.90
20045;DHT22;10183;47.808;9.476;2023-07-09T05:02:02;15.70;99.90
20045;DHT22;10183;47.808;9.476;2023-07-09T05:04:30;15.80;99.90
20045;DHT22;10183;47.808;9.476;2023-07-09T05:06:57;15.90;99.90
20045;DHT22;10183;47.808;9.476;2023-07-09T05:09:24;16.00;99.90
20045;DHT22;10183;47.808;9.476;2023-07-09T05:11:50;16.20;99.90
20045;DHT22;10183;47.808;9.476;2023-07-09T05:14:17;16.30;99.90
20045;DHT22;10183;47.808;9.476;2023-07-09T05:16:44;16.50;99.90
20045;DHT22;10183;47.808;9.476;2023-07-09T05:19:11;16.60;99.90
20045;DHT22;10183;47.808;9.476;2023-07-09T05:21:38;16.70;99.90
20045;DHT22;10183;47.808;9.476;2023-07-09T05:24:04;16.90;99.90
20045;DHT22;10183;47.808;9.476;2023-07-09T05:26:30;17.00;99.90
20045;DHT22;10183;47.808;9.476;2023-07-09T05:28:57;17.10;99.90
20045;DHT22;10183;47.808;9.476;2023-07-09T05:31:23;17.30;99.90
20045;DHT22;10183;47.808;9.476;2023-07-09T05:33:49;17.50;99.90
20045;DHT22;10183;47.808;9.476;2023-07-09T05:36:15;17.80;99.90
20045;DHT22;10183;47.808;9.476;2023-07-09T05:38:43;18.00;99.90
20045;DHT22;10183;47.808;9.476;2023-07-09T05:41:09;18.10;99.90
20045;DHT22;10183;47.808;9.476;2023-07-09T05:43:36;18.10;99.90
20045;DHT22;10183;47.808;9.476;2023-07-09T05:46:04;18.20;99.90
20045;DHT22;10183;47.808;9.476;2023-07-09T05:48:30;18.20;99.90
20045;DHT22;10183;47.808;9.476;2023-07-09T05:50:56;18.30;99.90
20045;DHT22;10183;47.808;9.476;2023-07-09T05:53:23;18.50;99.90
20045;DHT22;10183;47.808;9.476;2023-07-09T05:55:53;18.70;99.90
20045;DHT22;10183;47.808;9.476;2023-07-09T05:58:20;18.90;99.90
20045;DHT22;10183;47.808;9.476;2023-07-09T06:00:49;19.20;99.90
20045;DHT22;10183;47.808;9.476;2023-07-09T06:03:18;19.40;99.90
20045;DHT22;10183;47.808;9.476;2023-07-09T06:05:44;19.60;99.90
20045;DHT22;10183;47.808;9.476;2023-07-09T06:08:10;19.80;99.90
20045;DHT22;10183;47.808;9.476;2023-07-09T06:10:38;19.90;99.90
20045;DHT22;10183;47.808;9.476;2023-07-09T06:13:09;20.00;99.90
20045;DHT22;10183;47.808;9.476;2023-07-09T06:15:35;20.20;99.90
20045;DHT22;10183;47.808;9.476;2023-07-09T06:18:01;20.40;99.90
20045;DHT22;10183;47.808;9.476;2023-07-09T06:20:28;20.60;99.90
20045;DHT22;10183;47.808;9.476;2023-07-09T06:22:54;20.80;99.90
20045;DHT22;10183;47.808;9.476;2023-07-09T06:25:20;20.90;99.90
20045;DHT22;10183;47.808;9.476;2023-07-09T06:27:46;21.00;99.90
20045;DHT22;10183;47.808;9.476;2023-07-09T06:30:12;21.20;99.90
20045;DHT22;10183;47.808;9.476;2023-07-09T06:32:40;21.40;99.90
20045;DHT22;10183;47.808;9.476;2023-07-09T06:35:06;21.40;99.90
20045;DHT22;10183;47.808;9.476;2023-07-09T06:37:32;21.50;99.90
20045;DHT22;10183;47.808;9.476;2023-07-09T06:39:58;21.50;99.90
20045;DHT22;10183;47.808;9.476;2023-07-09T06:42:24;21.60;99.90
20045;DHT22;10183;47.808;9.476;2023-07-09T06:44:51;21.70;99.90
20045;DHT22;10183;47.808;9.476;2023-07-09T06:47:17;21.80;99.90
20045;DHT22;10183;47.808;9.476;2023-07-09T06:49:43;21.90;99.90
20045;DHT22;10183;47.808;9.476;2023-07-09T06:52:09;22.10;99.90
20045;DHT22;10183;47.808;9.476;2023-07-09T06:54:35;22.20;99.90
20045;DHT22;10183;47.808;9.476;2023-07-09T06:57:01;22.30;99.90
20045;DHT22;10183;47.808;9.476;2023-07-09T06:59:27;22.50;99.90
20045;DHT22;10183;47.808;9.476;2023-07-09T07:01:54;22.60;99.90
20045;DHT22;10183;47.808;9.476;2023-07-09T07:04:20;22.70;99.90
20045;DHT22;10183;47.808;9.476;2023-07-09T07:06:46;22.80;99.90
20045;DHT22;10183;47.808;9.476;2023-07-09T07:09:12;22.90;99.90
20045;DHT22;10183;47.808;9.476;2023-07-09T07:11:38;23.10;99.90
20045;DHT22;10183;47.808;9.476;2023-07-09T07:14:04;23.20;99.90
20045;DHT22;10183;47.808;9.476;2023-07-09T07:16:30;23.20;99.90
20045;DHT22;10183;47.808;9.476;2023-07-09T07:18:56;23.30;99.90
20045;DHT22;10183;47.808;9.476;2023-07-09T07:21:23;23.40;99.90
20045;DHT22;10183;47.808;9.476;2023-07-09T07:23:49;23.60;99.90
20045;DHT22;10183;47.808;9.476;2023-07-09T07:26:15;23.60;99.90
20045;DHT22;10183;47.808;9.476;2023-07-09T07:28:41;23.80;99.90
20045;DHT22;10183;47.808;9.476;2023-07-09T07:31:09;23.90;99.90
20045;DHT22;10183;47.808;9.476;2023-07-09T07:33:36;24.10;99.90
20045;DHT22;10183;47.808;9.476;2023-07-09T07:36:06;24.20;99.90
20045;DHT22;10183;47.808;9.476;2023-07-09T07:38:32;24.10;99.90
20045;DHT22;10183;47.808;9.476;2023-07-09T07:40:59;24.20;99.90
20045;DHT22;10183;47.808;9.476;2023-07-09T07:43:25;24.40;99.90
20045;DHT22;10183;47.808;9.476;2023-07-09T07:45:51;24.60;99.90
20045;DHT22;10183;47.808;9.476;2023-07-09T07:48:17;24.70;99.90
20045;DHT22;10183;47.808;9.476;2023-07-09T07:50:44;24.90;99.90
20045;DHT22;10183;47.808;9.476;2023-07-09T07:53:11;24.90;99.90
20045;DHT22;10183;47.808;9.476;2023-07-09T07:55:38;24.90;99.90
20045;DHT22;10183;47.808;9.476;2023-07-09T07:58:04;24.90;99.90
20045;DHT22;10183;47.808;9.476;2023-07-09T08:00:30;25.00;99.90
20045;DHT22;10183;47.808;9.476;2023-07-09T08:02:57;25.10;99.90
20045;DHT22;10183;47.808;9.476;2023-07-09T08:05:23;25.10;99.90
20045;DHT22;10183;47.808;9.476;2023-07-09T08:07:49;25.10;99.90
20045;DHT22;10183;47.808;9.476;2023-07-09T08:10:16;25.10;99.90
20045;DHT22;10183;47.808;9.476;2023-07-09T08:12:42;25.20;99.90
20045;DHT22;10183;47.808;9.476;2023-07-09T08:15:08;25.40;99.90
20045;DHT22;10183;47.808;9.476;2023-07-09T08:17:35;25.60;99.90
20045;DHT22;10183;47.808;9.476;2023-07-09T08:20:01;25.60;99.90
20045;DHT22;10183;47.808;9.476;2023-07-09T08:22:28;25.50;99.90
20045;DHT22;10183;47.808;9.476;2023-07-09T08:24:54;25.60;99.90
20045;DHT22;10183;47.808;9.476;2023-07-09T08:27:20;25.60;99.90
20045;DHT22;10183;47.808;9.476;2023-07-09T08:29:46;25.80;99.90
20045;DHT22;10183;47.808;9.476;2023-07-09T08:32:13;26.00;99.90
20045;DHT22;10183;47.808;9.476;2023-07-09T08:34:41;26.10;99.90
20045;DHT22;10183;47.808;9.476;2023-07-09T08:37:08;26.30;99.90
20045;DHT22;10183;47.808;9.476;2023-07-09T08:39:34;26.40;99.90
20045;DHT22;10183;47.808;9.476;2023-07-09T08:42:09;26.40;99.90
20045;DHT22;10183;47.808;9.476;2023-07-09T08:50:22;26.70;99.90
20045;DHT22;10183;47.808;9.476;2023-07-09T08:52:51;26.70;99.90
20045;DHT22;10183;47.808;9.476;2023-07-09T08:55:21;26.80;99.90
20045;DHT22;10183;47.808;9.476;2023-07-09T08:57:49;26.80;99.90
20045;DHT22;10183;47.808;9.476;2023-07-09T09:00:43;26.90;99.90
20045;DHT22;10183;47.808;9.476;2023-07-09T09:05:46;27.20;99.90
20045;DHT22;10183;47.808;9.476;2023-07-09T09:08:40;27.40;99.90
20045;DHT22;10183;47.808;9.476;2023-07-09T09:14:27;27.20;99.90
20045;DHT22;10183;47.808;9.476;2023-07-09T09:16:56;27.40;99.90
20045;DHT22;10183;47.808;9.476;2023-07-09T09:19:29;27.50;99.90
20045;DHT22;10183;47.808;9.476;2023-07-09T09:22:04;27.60;99.90
20045;DHT22;10183;47.808;9.476;2023-07-09T09:25:05;27.80;99.90
20045;DHT22;10183;47.808;9.476;2023-07-09T09:27:37;27.80;99.90
20045;DHT22;10183;47.808;9.476;2023-07-09T09:30:08;27.90;99.90
20045;DHT22;10183;47.808;9.476;2023-07-09T09:32:43;27.80;99.90
20045;DHT22;10183;47.808;9.476;2023-07-09T09:35:18;27.80;99.90
20045;DHT22;10183;47.808;9.476;2023-07-09T09:37:53;27.80;99.90
20045;DHT22;10183;47.808;9.476;2023-07-09T09:40:20;28.10;99.90
20045;DHT22;10183;47.808;9.476;2023-07-09T09:42:57;28.40;99.90
20045;DHT22;10183;47.808;9.476;2023-07-09T09:45:32;28.30;99.90
20045;DHT22;10183;47.808;9.476;2023-07-09T09:48:00;28.40;99.90
20045;DHT22;10183;47.808;9.476;2023-07-09T09:50:30;28.30;93.30
20045;DHT22;10183;47.808;9.476;2023-07-09T09:52:59;28.50;99.90
20045;DHT22;10183;47.808;9.476;2023-07-09T09:55:29;28.90;99.90
20045;DHT22;10183;47.808;9.476;2023-07-09T09:57:56;28.80;91.00
20045;DHT22;10183;47.808;9.476;2023-07-09T10:00:27;29.00;97.70
20045;DHT22;10183;47.808;9.476;2023-07-09T10:03:01;29.30;99.80
20045;DHT22;10183;47.808;9.476;2023-07-09T10:05:32;29.70;99.90
20045;DHT22;10183;47.808;9.476;2023-07-09T10:08:20;30.00;83.10
20045;DHT22;10183;47.808;9.476;2023-07-09T10:10:51;30.20;69.30
20045;DHT22;10183;47.808;9.476;2023-07-09T10:13:29;30.00;83.20
20045;DHT22;10183;47.808;9.476;2023-07-09T10:16:05;30.40;68.50
20045;DHT22;10183;47.808;9.476;2023-07-09T10:21:34;30.00;32.00
20045;DHT22;10183;47.808;9.476;2023-07-09T10:26:51;30.60;54.50
20045;DHT22;10183;47.808;9.476;2023-07-09T10:29:37;31.00;35.90
20045;DHT22;10183;47.808;9.476;2023-07-09T10:32:32;30.50;29.50
20045;DHT22;10183;47.808;9.476;2023-07-09T10:35:09;30.20;49.70
20045;DHT22;10183;47.808;9.476;2023-07-09T10:40:28;30.40;39.80
20045;DHT22;10183;47.808;9.476;2023-07-09T10:42:58;30.90;51.60
20045;DHT22;10183;47.808;9.476;2023-07-09T10:45:40;30.60;35.20
20045;DHT22;10183;47.808;9.476;2023-07-09T10:48:18;30.90;38.30
20045;DHT22;10183;47.808;9.476;2023-07-09T10:50:49;31.10;26.50
20045;DHT22;10183;47.808;9.476;2023-07-09T10:56:23;31.80;37.10
20045;DHT22;10183;47.808;9.476;2023-07-09T11:01:31;32.40;26.90
20045;DHT22;10183;47.808;9.476;2023-07-09T11:04:21;32.60;29.90
20045;DHT22;10183;47.808;9.476;2023-07-09T11:06:51;32.00;28.60
20045;DHT22;10183;47.808;9.476;2023-07-09T11:09:31;30.80;17.00
20045;DHT22;10183;47.808;9.476;2023-07-09T11:12:05;31.00;28.50
20045;DHT22;10183;47.808;9.476;2023-07-09T11:14:49;31.20;16.70
20045;DHT22;10183;47.808;9.476;2023-07-09T11:17:21;31.20;17.20
20045;DHT22;10183;47.808;9.476;2023-07-09T11:20:00;31.60;29.20
20045;DHT22;10183;47.808;9.476;2023-07-09T11:22:38;31.40;23.70
20045;DHT22;10183;47.808;9.476;2023-07-09T11:25:13;31.80;29.80
20045;DHT22;10183;47.808;9.476;2023-07-09T11:27:51;32.20;47.10
20045;DHT22;10183;47.808;9.476;2023-07-09T11:30:22;32.00;30.00
20045;DHT22;10183;47.808;9.476;2023-07-09T11:33:16;32.30;20.30
20045;DHT22;10183;47.808;9.476;2023-07-09T11:35:50;32.00;23.90
20045;DHT22;10183;47.808;9.476;2023-07-09T11:38:22;32.80;20.30
20045;DHT22;10183;47.808;9.476;2023-07-09T11:40:51;33.20;15.40
20045;DHT22;10183;47.808;9.476;2023-07-09T11:43:35;32.50;13.80
20045;DHT22;10183;47.808;9.476;2023-07-09T11:46:14;32.50;12.90
20045;DHT22;10183;47.808;9.476;2023-07-09T11:48:44;33.00;11.20
20045;DHT22;10183;47.808;9.476;2023-07-09T11:51:20;33.40;9.80
20045;DHT22;10183;47.808;9.476;2023-07-09T11:53:52;33.70;8.30
20045;DHT22;10183;47.808;9.476;2023-07-09T11:56:20;33.60;6.20
20045;DHT22;10183;47.808;9.476;2023-07-09T11:58:52;33.80;4.00
20045;DHT22;10183;47.808;9.476;2023-07-09T12:01:22;33.20;2.10
20045;DHT22;10183;47.808;9.476;2023-07-09T12:03:49;33.00;2.00
20045;DHT22;10183;47.808;9.476;2023-07-09T12:06:22;33.10;2.90
20045;DHT22;10183;47.808;9.476;2023-07-09T12:08:50;33.40;1.70
20045;DHT22;10183;47.808;9.476;2023-07-09T12:11:27;33.70;1.40
20045;DHT22;10183;47.808;9.476;2023-07-09T12:13:54;33.30;1.00
20045;DHT22;10183;47.808;9.476;2023-07-09T12:16:29;33.10;1.50
20045;DHT22;10183;47.808;9.476;2023-07-09T12:18:56;33.50;3.00
20045;DHT22;10183;47.808;9.476;2023-07-09T12:21:24;34.10;1.00
20045;DHT22;10183;47.808;9.476;2023-07-09T12:23:52;35.10;1.00
20045;DHT22;10183;47.808;9.476;2023-07-09T12:26:19;36.10;1.00
20045;DHT22;10183;47.808;9.476;2023-07-09T12:28:54;36.60;1.00
20045;DHT22;10183;47.808;9.476;2023-07-09T12:31:26;35.80;1.00
20045;DHT22;10183;47.808;9.476;2023-07-09T12:33:54;34.50;1.00
20045;DHT22;10183;47.808;9.476;2023-07-09T12:36:21;34.20;1.00
20045;DHT22;10183;47.808;9.476;2023-07-09T12:38:50;33.90;1.00
20045;DHT22;10183;47.808;9.476;2023-07-09T12:43:46;34.80;1.00
20045;DHT22;10183;47.808;9.476;2023-07-09T12:46:12;34.70;1.00
20045;DHT22;10183;47.808;9.476;2023-07-09T12:48:38;34.20;1.00
20045;DHT22;10183;47.808;9.476;2023-07-09T12:51:07;34.20;1.00
20045;DHT22;10183;47.808;9.476;2023-07-09T12:53:36;35.40;1.10
20045;DHT22;10183;47.808;9.476;2023-07-09T12:56:12;36.60;1.00
20045;DHT22;10183;47.808;9.476;2023-07-09T12:58:39;35.40;1.00
20045;DHT22;10183;47.808;9.476;2023-07-09T13:01:11;35.20;1.00
20045;DHT22;10183;47.808;9.476;2023-07-09T13:03:39;35.30;1.00
20045;DHT22;10183;47.808;9.476;2023-07-09T13:06:26;34.50;1.00
20045;DHT22;10183;47.808;9.476;2023-07-09T13:08:58;33.30;1.00
20045;DHT22;10183;47.808;9.476;2023-07-09T13:11:35;34.80;1.00
20045;DHT22;10183;47.808;9.476;2023-07-09T13:14:05;35.50;1.00
20045;DHT22;10183;47.808;9.476;2023-07-09T13:16:38;36.40;1.00
20045;DHT22;10183;47.808;9.476;2023-07-09T13:19:05;37.30;1.00
20045;DHT22;10183;47.808;9.476;2023-07-09T13:21:31;36.40;1.00
20045;DHT22;10183;47.808;9.476;2023-07-09T13:23:59;36.00;1.00
20045;DHT22;10183;47.808;9.476;2023-07-09T13:26:25;35.50;1.00
20045;DHT22;10183;47.808;9.476;2023-07-09T13:28:51;35.10;1.00
20045;DHT22;10183;47.808;9.476;2023-07-09T13:31:19;34.90;1.00
20045;DHT22;10183;47.808;9.476;2023-07-09T13:33:55;34.70;1.00
20045;DHT22;10183;47.808;9.476;2023-07-09T13:36:23;36.20;1.00
20045;DHT22;10183;47.808;9.476;2023-07-09T13:38:50;34.60;1.00
20045;DHT22;10183;47.808;9.476;2023-07-09T13:41:18;34.60;1.00
20045;DHT22;10183;47.808;9.476;2023-07-09T13:43:48;35.10;1.00
20045;DHT22;10183;47.808;9.476;2023-07-09T13:46:14;36.40;1.00
20045;DHT22;10183;47.808;9.476;2023-07-09T13:48:42;36.70;1.00
20045;DHT22;10183;47.808;9.476;2023-07-09T13:51:18;37.10;1.00
20045;DHT22;10183;47.808;9.476;2023-07-09T13:53:45;37.10;1.00
20045;DHT22;10183;47.808;9.476;2023-07-09T13:56:11;38.30;1.00
20045;DHT22;10183;47.808;9.476;2023-07-09T13:58:37;38.90;1.00
20045;DHT22;10183;47.808;9.476;2023-07-09T14:01:20;38.40;1.00
20045;DHT22;10183;47.808;9.476;2023-07-09T14:03:47;38.70;1.00
20045;DHT22;10183;47.808;9.476;2023-07-09T14:06:15;37.40;1.00
20045;DHT22;10183;47.808;9.476;2023-07-09T14:08:42;37.80;1.00
20045;DHT22;10183;47.808;9.476;2023-07-09T14:11:12;38.70;1.00
20045;DHT22;10183;47.808;9.476;2023-07-09T14:13:39;39.20;1.00
20045;DHT22;10183;47.808;9.476;2023-07-09T14:16:06;39.50;1.00
20045;DHT22;10183;47.808;9.476;2023-07-09T14:18:34;41.20;1.00
20045;DHT22;10183;47.808;9.476;2023-07-09T14:21:02;42.70;1.00
20045;DHT22;10183;47.808;9.476;2023-07-09T14:23:32;39.50;1.00
20045;DHT22;10183;47.808;9.476;2023-07-09T14:25:58;38.80;1.00
20045;DHT22;10183;47.808;9.476;2023-07-09T14:28:24;37.30;1.00
20045;DHT22;10183;47.808;9.476;2023-07-09T14:30:50;35.70;1.00
20045;DHT22;10183;47.808;9.476;2023-07-09T14:33:18;37.00;1.00
20045;DHT22;10183;47.808;9.476;2023-07-09T14:35:45;36.50;1.00
20045;DHT22;10183;47.808;9.476;2023-07-09T14:38:16;36.80;1.00
20045;DHT22;10183;47.808;9.476;2023-07-09T14:40:44;36.90;1.00
20045;DHT22;10183;47.808;9.476;2023-07-09T14:43:11;35.90;1.00
20045;DHT22;10183;47.808;9.476;2023-07-09T14:45:37;36.30;1.00
20045;DHT22;10183;47.808;9.476;2023-07-09T14:48:11;36.70;1.00
20045;DHT22;10183;47.808;9.476;2023-07-09T14:50:39;36.30;1.00
20045;DHT22;10183;47.808;9.476;2023-07-09T14:53:25;37.50;1.00
20045;DHT22;10183;47.808;9.476;2023-07-09T14:55:53;38.30;1.00
20045;DHT22;10183;47.808;9.476;2023-07-09T14:58:21;38.90;1.00
20045;DHT22;10183;47.808;9.476;2023-07-09T15:00:48;38.50;1.00
20045;DHT22;10183;47.808;9.476;2023-07-09T15:03:20;37.50;1.00
20045;DHT22;10183;47.808;9.476;2023-07-09T15:05:48;38.30;1.00
20045;DHT22;10183;47.808;9.476;2023-07-09T15:08:20;39.00;1.00
20045;DHT22;10183;47.808;9.476;2023-07-09T15:10:49;38.20;1.00
20045;DHT22;10183;47.808;9.476;2023-07-09T15:15:52;38.40;1.00
20045;DHT22;10183;47.808;9.476;2023-07-09T15:18:18;38.40;1.00
20045;DHT22;10183;47.808;9.476;2023-07-09T15:20:56;38.80;1.00
20045;DHT22;10183;47.808;9.476;2023-07-09T15:23:23;40.40;1.00
20045;DHT22;10183;47.808;9.476;2023-07-09T15:25:51;38.70;1.00
20045;DHT22;10183;47.808;9.476;2023-07-09T15:28:18;37.80;1.00
20045;DHT22;10183;47.808;9.476;2023-07-09T15:30:44;37.40;1.00
20045;DHT22;10183;47.808;9.476;2023-07-09T15:33:16;37.50;1.00
20045;DHT22;10183;47.808;9.476;2023-07-09T15:35:44;37.70;1.00
20045;DHT22;10183;47.808;9.476;2023-07-09T15:38:25;37.40;1.00
20045;DHT22;10183;47.808;9.476;2023-07-09T15:40:52;38.80;1.00
20045;DHT22;10183;47.808;9.476;2023-07-09T15:43:19;39.80;1.00
20045;DHT22;10183;47.808;9.476;2023-07-09T15:45:49;40.40;1.00
20045;DHT22;10183;47.808;9.476;2023-07-09T15:48:30;38.80;1.00
20045;DHT22;10183;47.808;9.476;2023-07-09T15:50:59;37.40;1.00
20045;DHT22;10183;47.808;9.476;2023-07-09T15:53:26;36.80;1.00
20045;DHT22;10183;47.808;9.476;2023-07-09T15:55:58;36.60;1.00
20045;DHT22;10183;47.808;9.476;2023-07-09T15:58:28;37.60;1.00
20045;DHT22;10183;47.808;9.476;2023-07-09T16:00:55;38.20;1.00
20045;DHT22;10183;47.808;9.476;2023-07-09T16:03:21;39.20;1.00
20045;DHT22;10183;47.808;9.476;2023-07-09T16:05:47;38.90;1.00
20045;DHT22;10183;47.808;9.476;2023-07-09T16:08:14;37.70;1.00
20045;DHT22;10183;47.808;9.476;2023-07-09T16:10:41;38.40;1.00
20045;DHT22;10183;47.808;9.476;2023-07-09T16:13:33;38.60;1.00
20045;DHT22;10183;47.808;9.476;2023-07-09T16:15:59;37.60;1.00
20045;DHT22;10183;47.808;9.476;2023-07-09T16:18:26;38.50;1.00
20045;DHT22;10183;47.808;9.476;2023-07-09T16:20:53;38.30;1.00